sensor_id;sensor_type;location;lat;lon;timestamp;P1;durP1;ratioP1;P2;durP2;ratioP2
26634;SDS011;14490;54.208;37.686;2023-12-07T00:30:19;11.45;;;5.90;;
26634;SDS011;14490;54.208;37.686;2023-12-07T00:35:34;12.88;;;6.40;;
26634;SDS011;14490;54.208;37.686;2023-12-07T00:38:16;14.10;;;6.40;;
26634;SDS011;14490;54.208;37.686;2023-12-07T00:40:43;18.50;;;6.70;;
26634;SDS011;14490;54.208;37.686;2023-12-07T00:43:26;9.90;;;5.95;;
26634;SDS011;14490;54.208;37.686;2023-12-07T00:45:53;10.80;;;5.50;;
26634;SDS011;14490;54.208;37.686;2023-12-07T00:48:21;12.60;;;5.70;;
26634;SDS011;14490;54.208;37.686;2023-12-07T00:51:03;11.88;;;6.07;;
26634;SDS011;14490;54.208;37.686;2023-12-07T00:53:44;11.55;;;5.95;;
26634;SDS011;14490;54.208;37.686;2023-12-07T00:56:25;12.13;;;5.60;;
26634;SDS011;14490;54.208;37.686;2023-12-07T01:02:46;9.70;;;5.70;;
26634;SDS011;14490;54.208;37.686;2023-12-07T01:05:13;13.35;;;6.55;;
26634;SDS011;14490;54.208;37.686;2023-12-07T01:07:40;13.52;;;6.38;;
26634;SDS011;14490;54.208;37.686;2023-12-07T01:10:08;11.50;;;5.47;;
26634;SDS011;14490;54.208;37.686;2023-12-07T01:12:35;12.73;;;5.90;;
26634;SDS011;14490;54.208;37.686;2023-12-07T01:15:03;15.05;;;6.13;;
26634;SDS011;14490;54.208;37.686;2023-12-07T01:17:37;15.18;;;7.13;;
26634;SDS011;14490;54.208;37.686;2023-12-07T01:20:06;13.50;;;6.13;;
26634;SDS011;14490;54.208;37.686;2023-12-07T01:22:48;15.85;;;6.95;;
26634;SDS011;14490;54.208;37.686;2023-12-07T01:25:30;16.58;;;6.65;;
26634;SDS011;14490;54.208;37.686;2023-12-07T01:28:11;17.60;;;6.40;;
26634;SDS011;14490;54.208;37.686;2023-12-07T01:30:53;13.75;;;6.78;;
26634;SDS011;14490;54.208;37.686;2023-12-07T01:33:36;13.95;;;5.57;;
26634;SDS011;14490;54.208;37.686;2023-12-07T01:36:05;13.50;;;7.20;;
26634;SDS011;14490;54.208;37.686;2023-12-07T01:38:33;14.35;;;7.40;;
26634;SDS011;14490;54.208;37.686;2023-12-07T01:41:01;15.13;;;5.95;;
26634;SDS011;14490;54.208;37.686;2023-12-07T01:43:28;22.05;;;8.77;;
26634;SDS011;14490;54.208;37.686;2023-12-07T01:45:56;22.70;;;7.88;;
26634;SDS011;14490;54.208;37.686;2023-12-07T01:48:44;18.05;;;8.00;;
26634;SDS011;14490;54.208;37.686;2023-12-07T01:51:15;19.13;;;7.43;;
26634;SDS011;14490;54.208;37.686;2023-12-07T01:53:43;11.20;;;6.65;;
26634;SDS011;14490;54.208;37.686;2023-12-07T01:56:11;19.35;;;7.07;;
26634;SDS011;14490;54.208;37.686;2023-12-07T01:58:38;22.63;;;8.25;;
26634;SDS011;14490;54.208;37.686;2023-12-07T02:01:06;18.55;;;7.93;;
26634;SDS011;14490;54.208;37.686;2023-12-07T02:03:34;17.20;;;6.43;;
26634;SDS011;14490;54.208;37.686;2023-12-07T02:06:02;15.40;;;7.28;;
26634;SDS011;14490;54.208;37.686;2023-12-07T02:08:45;15.75;;;6.72;;
26634;SDS011;14490;54.208;37.686;2023-12-07T02:11:40;17.70;;;7.35;;
26634;SDS011;14490;54.208;37.686;2023-12-07T02:14:21;10.90;;;6.47;;
26634;SDS011;14490;54.208;37.686;2023-12-07T02:17:06;10.07;;;6.07;;
26634;SDS011;14490;54.208;37.686;2023-12-07T02:20:08;16.77;;;7.03;;
26634;SDS011;14490;54.208;37.686;2023-12-07T02:22:49;14.40;;;7.43;;
26634;SDS011;14490;54.208;37.686;2023-12-07T02:29:02;14.40;;;6.10;;
26634;SDS011;14490;54.208;37.686;2023-12-07T02:31:39;13.30;;;6.75;;
26634;SDS011;14490;54.208;37.686;2023-12-07T02:34:07;19.23;;;7.00;;
26634;SDS011;14490;54.208;37.686;2023-12-07T02:36:34;15.13;;;6.53;;
26634;SDS011;14490;54.208;37.686;2023-12-07T02:39:05;11.85;;;5.30;;
26634;SDS011;14490;54.208;37.686;2023-12-07T02:41:34;16.52;;;6.32;;
26634;SDS011;14490;54.208;37.686;2023-12-07T02:50:06;20.40;;;7.97;;
26634;SDS011;14490;54.208;37.686;2023-12-07T02:55:16;18.08;;;7.25;;
26634;SDS011;14490;54.208;37.686;2023-12-07T02:57:57;18.85;;;8.13;;
26634;SDS011;14490;54.208;37.686;2023-12-07T03:00:24;18.38;;;6.55;;
26634;SDS011;14490;54.208;37.686;2023-12-07T03:05:40;14.57;;;6.70;;
26634;SDS011;14490;54.208;37.686;2023-12-07T03:08:07;17.20;;;7.13;;
26634;SDS011;14490;54.208;37.686;2023-12-07T03:10:48;18.02;;;8.15;;
26634;SDS011;14490;54.208;37.686;2023-12-07T03:13:31;17.92;;;7.25;;
26634;SDS011;14490;54.208;37.686;2023-12-07T03:16:12;20.00;;;7.57;;
26634;SDS011;14490;54.208;37.686;2023-12-07T03:18:54;10.77;;;6.90;;
26634;SDS011;14490;54.208;37.686;2023-12-07T03:21:23;19.77;;;7.43;;
26634;SDS011;14490;54.208;37.686;2023-12-07T03:24:04;12.85;;;6.75;;
26634;SDS011;14490;54.208;37.686;2023-12-07T03:26:33;13.32;;;7.38;;
26634;SDS011;14490;54.208;37.686;2023-12-07T03:29:00;19.70;;;7.15;;
26634;SDS011;14490;54.208;37.686;2023-12-07T03:31:30;14.38;;;6.85;;
26634;SDS011;14490;54.208;37.686;2023-12-07T03:33:57;13.88;;;7.47;;
26634;SDS011;14490;54.208;37.686;2023-12-07T03:36:27;16.20;;;7.35;;
26634;SDS011;14490;54.208;37.686;2023-12-07T03:39:08;11.50;;;6.65;;
26634;SDS011;14490;54.208;37.686;2023-12-07T03:41:49;15.30;;;7.30;;
26634;SDS011;14490;54.208;37.686;2023-12-07T03:46:52;13.40;;;5.85;;
26634;SDS011;14490;54.208;37.686;2023-12-07T03:49:33;12.80;;;6.05;;
26634;SDS011;14490;54.208;37.686;2023-12-07T03:52:05;12.27;;;6.43;;
26634;SDS011;14490;54.208;37.686;2023-12-07T03:54:46;11.38;;;5.85;;
26634;SDS011;14490;54.208;37.686;2023-12-07T03:57:13;16.52;;;6.28;;
26634;SDS011;14490;54.208;37.686;2023-12-07T03:59:40;18.60;;;6.90;;
26634;SDS011;14490;54.208;37.686;2023-12-07T04:02:21;15.48;;;5.95;;
26634;SDS011;14490;54.208;37.686;2023-12-07T04:04:49;15.50;;;7.25;;
26634;SDS011;14490;54.208;37.686;2023-12-07T04:07:31;14.93;;;6.28;;
26634;SDS011;14490;54.208;37.686;2023-12-07T04:09:59;14.55;;;6.93;;
26634;SDS011;14490;54.208;37.686;2023-12-07T04:12:41;17.02;;;7.00;;
26634;SDS011;14490;54.208;37.686;2023-12-07T04:18:03;14.70;;;6.72;;
26634;SDS011;14490;54.208;37.686;2023-12-07T04:25:47;12.40;;;6.60;;
26634;SDS011;14490;54.208;37.686;2023-12-07T04:28:42;13.80;;;5.38;;
26634;SDS011;14490;54.208;37.686;2023-12-07T04:34:14;10.95;;;5.70;;
26634;SDS011;14490;54.208;37.686;2023-12-07T04:37:13;10.50;;;5.78;;
26634;SDS011;14490;54.208;37.686;2023-12-07T04:46:01;9.25;;;5.65;;
26634;SDS011;14490;54.208;37.686;2023-12-07T04:48:42;14.85;;;6.57;;
26634;SDS011;14490;54.208;37.686;2023-12-07T04:51:27;11.25;;;5.95;;
26634;SDS011;14490;54.208;37.686;2023-12-07T04:54:08;14.18;;;5.80;;
26634;SDS011;14490;54.208;37.686;2023-12-07T04:56:49;10.35;;;5.13;;
26634;SDS011;14490;54.208;37.686;2023-12-07T04:59:31;16.98;;;5.65;;
26634;SDS011;14490;54.208;37.686;2023-12-07T05:05:48;9.20;;;5.43;;
26634;SDS011;14490;54.208;37.686;2023-12-07T05:08:15;15.40;;;6.30;;
26634;SDS011;14490;54.208;37.686;2023-12-07T05:10:57;16.17;;;5.57;;
26634;SDS011;14490;54.208;37.686;2023-12-07T05:15:59;11.43;;;4.72;;
26634;SDS011;14490;54.208;37.686;2023-12-07T05:18:26;14.73;;;5.97;;
26634;SDS011;14490;54.208;37.686;2023-12-07T05:21:09;9.15;;;5.15;;
26634;SDS011;14490;54.208;37.686;2023-12-07T05:23:37;11.40;;;5.35;;
26634;SDS011;14490;54.208;37.686;2023-12-07T05:26:04;7.60;;;4.40;;
26634;SDS011;14490;54.208;37.686;2023-12-07T05:28:33;12.80;;;4.47;;
26634;SDS011;14490;54.208;37.686;2023-12-07T05:31:02;11.57;;;5.00;;
26634;SDS011;14490;54.208;37.686;2023-12-07T05:33:30;10.07;;;5.40;;
26634;SDS011;14490;54.208;37.686;2023-12-07T05:35:57;13.25;;;6.28;;
26634;SDS011;14490;54.208;37.686;2023-12-07T05:38:27;15.25;;;5.97;;
26634;SDS011;14490;54.208;37.686;2023-12-07T05:41:08;9.43;;;4.57;;
26634;SDS011;14490;54.208;37.686;2023-12-07T05:43:40;13.35;;;5.47;;
26634;SDS011;14490;54.208;37.686;2023-12-07T05:46:21;26.92;;;6.47;;
26634;SDS011;14490;54.208;37.686;2023-12-07T05:48:48;10.85;;;5.55;;
26634;SDS011;14490;54.208;37.686;2023-12-07T05:51:19;9.00;;;4.97;;
26634;SDS011;14490;54.208;37.686;2023-12-07T05:53:49;14.45;;;4.60;;
26634;SDS011;14490;54.208;37.686;2023-12-07T05:56:30;11.10;;;5.72;;
26634;SDS011;14490;54.208;37.686;2023-12-07T06:01:53;11.68;;;5.20;;
26634;SDS011;14490;54.208;37.686;2023-12-07T06:07:15;5.43;;;3.85;;
26634;SDS011;14490;54.208;37.686;2023-12-07T06:23:26;6.90;;;3.78;;
26634;SDS011;14490;54.208;37.686;2023-12-07T06:25:54;8.23;;;4.53;;
26634;SDS011;14490;54.208;37.686;2023-12-07T06:28:21;7.97;;;4.38;;
26634;SDS011;14490;54.208;37.686;2023-12-07T06:31:05;9.57;;;4.80;;
26634;SDS011;14490;54.208;37.686;2023-12-07T06:33:33;12.73;;;5.15;;
26634;SDS011;14490;54.208;37.686;2023-12-07T06:36:18;13.35;;;5.60;;
26634;SDS011;14490;54.208;37.686;2023-12-07T06:38:48;11.98;;;5.55;;
26634;SDS011;14490;54.208;37.686;2023-12-07T06:41:29;8.63;;;5.38;;
26634;SDS011;14490;54.208;37.686;2023-12-07T06:43:56;8.88;;;4.75;;
26634;SDS011;14490;54.208;37.686;2023-12-07T06:46:23;11.25;;;5.68;;
26634;SDS011;14490;54.208;37.686;2023-12-07T06:48:51;15.20;;;5.72;;
26634;SDS011;14490;54.208;37.686;2023-12-07T06:51:18;12.80;;;4.82;;
26634;SDS011;14490;54.208;37.686;2023-12-07T06:53:45;14.43;;;4.72;;
26634;SDS011;14490;54.208;37.686;2023-12-07T06:56:14;9.38;;;5.35;;
26634;SDS011;14490;54.208;37.686;2023-12-07T06:58:55;8.68;;;5.07;;
26634;SDS011;14490;54.208;37.686;2023-12-07T07:01:36;14.35;;;5.65;;
26634;SDS011;14490;54.208;37.686;2023-12-07T07:04:17;15.23;;;4.70;;
26634;SDS011;14490;54.208;37.686;2023-12-07T07:06:44;14.23;;;4.00;;
26634;SDS011;14490;54.208;37.686;2023-12-07T07:09:12;11.93;;;4.15;;
26634;SDS011;14490;54.208;37.686;2023-12-07T07:11:43;9.13;;;5.20;;
26634;SDS011;14490;54.208;37.686;2023-12-07T07:14:14;9.43;;;5.13;;
26634;SDS011;14490;54.208;37.686;2023-12-07T07:16:41;10.00;;;5.10;;
26634;SDS011;14490;54.208;37.686;2023-12-07T07:19:09;16.67;;;6.03;;
26634;SDS011;14490;54.208;37.686;2023-12-07T07:21:51;12.82;;;4.40;;
26634;SDS011;14490;54.208;37.686;2023-12-07T07:24:18;9.95;;;4.82;;
26634;SDS011;14490;54.208;37.686;2023-12-07T07:26:47;16.00;;;5.97;;
26634;SDS011;14490;54.208;37.686;2023-12-07T07:29:28;11.27;;;5.88;;
26634;SDS011;14490;54.208;37.686;2023-12-07T07:31:55;11.45;;;4.68;;
26634;SDS011;14490;54.208;37.686;2023-12-07T07:34:22;17.75;;;6.28;;
26634;SDS011;14490;54.208;37.686;2023-12-07T07:36:50;9.30;;;4.00;;
26634;SDS011;14490;54.208;37.686;2023-12-07T07:39:37;9.95;;;4.60;;
26634;SDS011;14490;54.208;37.686;2023-12-07T08:30:13;10.93;;;5.22;;
26634;SDS011;14490;54.208;37.686;2023-12-07T08:32:56;10.80;;;4.93;;
26634;SDS011;14490;54.208;37.686;2023-12-07T08:35:49;15.30;;;5.72;;
26634;SDS011;14490;54.208;37.686;2023-12-07T08:38:31;9.63;;;4.60;;
26634;SDS011;14490;54.208;37.686;2023-12-07T08:40:58;13.13;;;5.85;;
26634;SDS011;14490;54.208;37.686;2023-12-07T08:43:39;9.60;;;5.47;;
26634;SDS011;14490;54.208;37.686;2023-12-07T09:16:55;9.60;;;4.65;;
26634;SDS011;14490;54.208;37.686;2023-12-07T09:19:22;11.23;;;4.22;;
26634;SDS011;14490;54.208;37.686;2023-12-07T09:21:51;11.40;;;5.10;;
26634;SDS011;14490;54.208;37.686;2023-12-07T09:24:21;11.32;;;5.40;;
26634;SDS011;14490;54.208;37.686;2023-12-07T09:26:48;10.93;;;4.22;;
26634;SDS011;14490;54.208;37.686;2023-12-07T09:29:29;12.00;;;5.07;;
26634;SDS011;14490;54.208;37.686;2023-12-07T09:31:58;14.48;;;4.90;;
26634;SDS011;14490;54.208;37.686;2023-12-07T09:34:25;18.33;;;5.80;;
26634;SDS011;14490;54.208;37.686;2023-12-07T09:37:04;9.27;;;4.40;;
26634;SDS011;14490;54.208;37.686;2023-12-07T09:39:47;11.55;;;4.95;;
26634;SDS011;14490;54.208;37.686;2023-12-07T09:42:28;13.48;;;5.15;;
26634;SDS011;14490;54.208;37.686;2023-12-07T09:45:10;12.32;;;4.53;;
26634;SDS011;14490;54.208;37.686;2023-12-07T09:54:49;8.32;;;4.70;;
26634;SDS011;14490;54.208;37.686;2023-12-07T09:57:18;12.33;;;5.77;;
26634;SDS011;14490;54.208;37.686;2023-12-07T09:59:46;10.85;;;5.28;;
26634;SDS011;14490;54.208;37.686;2023-12-07T10:02:27;11.23;;;4.65;;
26634;SDS011;14490;54.208;37.686;2023-12-07T10:05:05;11.10;;;5.97;;
26634;SDS011;14490;54.208;37.686;2023-12-07T10:07:33;10.13;;;4.65;;
26634;SDS011;14490;54.208;37.686;2023-12-07T10:10:05;9.63;;;4.63;;
26634;SDS011;14490;54.208;37.686;2023-12-07T10:12:44;9.38;;;4.32;;
26634;SDS011;14490;54.208;37.686;2023-12-07T10:15:13;9.73;;;4.38;;
26634;SDS011;14490;54.208;37.686;2023-12-07T10:17:45;15.63;;;6.30;;
26634;SDS011;14490;54.208;37.686;2023-12-07T10:23:05;16.00;;;5.07;;
26634;SDS011;14490;54.208;37.686;2023-12-07T10:28:19;11.40;;;4.80;;
26634;SDS011;14490;54.208;37.686;2023-12-07T10:30:48;8.80;;;5.20;;
26634;SDS011;14490;54.208;37.686;2023-12-07T10:33:15;12.50;;;6.13;;
26634;SDS011;14490;54.208;37.686;2023-12-07T10:35:42;9.23;;;5.18;;
26634;SDS011;14490;54.208;37.686;2023-12-07T10:38:10;8.57;;;5.10;;
26634;SDS011;14490;54.208;37.686;2023-12-07T10:46:10;14.30;;;5.72;;
26634;SDS011;14490;54.208;37.686;2023-12-07T10:49:06;12.10;;;4.85;;
26634;SDS011;14490;54.208;37.686;2023-12-07T10:51:45;9.77;;;4.35;;
26634;SDS011;14490;54.208;37.686;2023-12-07T10:54:41;10.23;;;4.75;;
26634;SDS011;14490;54.208;37.686;2023-12-07T10:57:29;8.77;;;4.53;;
26634;SDS011;14490;54.208;37.686;2023-12-07T11:02:36;12.05;;;5.43;;
26634;SDS011;14490;54.208;37.686;2023-12-07T11:07:50;8.40;;;4.85;;
26634;SDS011;14490;54.208;37.686;2023-12-07T11:12:55;15.68;;;5.97;;
26634;SDS011;14490;54.208;37.686;2023-12-07T11:15:38;11.38;;;5.55;;
26634;SDS011;14490;54.208;37.686;2023-12-07T11:18:22;10.68;;;4.90;;
26634;SDS011;14490;54.208;37.686;2023-12-07T11:21:01;8.80;;;4.72;;
26634;SDS011;14490;54.208;37.686;2023-12-07T11:23:42;9.73;;;5.30;;
26634;SDS011;14490;54.208;37.686;2023-12-07T11:26:29;9.40;;;5.25;;
26634;SDS011;14490;54.208;37.686;2023-12-07T11:28:56;9.68;;;6.38;;
26634;SDS011;14490;54.208;37.686;2023-12-07T11:33:55;7.75;;;4.50;;
26634;SDS011;14490;54.208;37.686;2023-12-07T11:36:37;6.93;;;3.50;;
26634;SDS011;14490;54.208;37.686;2023-12-07T11:42:24;11.30;;;4.78;;
26634;SDS011;14490;54.208;37.686;2023-12-07T11:44:52;10.68;;;4.78;;
26634;SDS011;14490;54.208;37.686;2023-12-07T11:47:38;12.10;;;4.45;;
26634;SDS011;14490;54.208;37.686;2023-12-07T11:50:07;11.55;;;5.38;;
26634;SDS011;14490;54.208;37.686;2023-12-07T11:52:35;11.02;;;3.97;;
26634;SDS011;14490;54.208;37.686;2023-12-07T11:55:03;10.82;;;4.72;;
26634;SDS011;14490;54.208;37.686;2023-12-07T11:57:31;10.73;;;4.70;;
26634;SDS011;14490;54.208;37.686;2023-12-07T12:00:00;11.90;;;4.20;;
26634;SDS011;14490;54.208;37.686;2023-12-07T12:02:28;10.75;;;4.78;;
26634;SDS011;14490;54.208;37.686;2023-12-07T12:04:59;7.00;;;4.32;;
26634;SDS011;14490;54.208;37.686;2023-12-07T12:10:04;10.30;;;4.60;;
26634;SDS011;14490;54.208;37.686;2023-12-07T12:12:56;12.70;;;4.63;;
26634;SDS011;14490;54.208;37.686;2023-12-07T12:15:41;18.80;;;5.95;;
26634;SDS011;14490;54.208;37.686;2023-12-07T12:18:08;14.75;;;5.57;;
26634;SDS011;14490;54.208;37.686;2023-12-07T12:20:52;20.88;;;8.00;;
26634;SDS011;14490;54.208;37.686;2023-12-07T12:23:20;10.32;;;4.28;;
26634;SDS011;14490;54.208;37.686;2023-12-07T12:29:30;15.20;;;4.63;;
26634;SDS011;14490;54.208;37.686;2023-12-07T12:31:59;14.90;;;5.07;;
26634;SDS011;14490;54.208;37.686;2023-12-07T12:34:27;7.47;;;4.28;;
26634;SDS011;14490;54.208;37.686;2023-12-07T12:36:55;9.48;;;4.45;;
26634;SDS011;14490;54.208;37.686;2023-12-07T12:39:26;7.88;;;4.28;;
26634;SDS011;14490;54.208;37.686;2023-12-07T12:44:32;9.30;;;4.80;;
26634;SDS011;14490;54.208;37.686;2023-12-07T12:47:18;12.52;;;4.10;;
26634;SDS011;14490;54.208;37.686;2023-12-07T12:49:46;8.05;;;4.65;;
26634;SDS011;14490;54.208;37.686;2023-12-07T12:52:14;11.18;;;5.05;;
26634;SDS011;14490;54.208;37.686;2023-12-07T12:54:59;13.48;;;4.43;;
26634;SDS011;14490;54.208;37.686;2023-12-07T12:57:27;14.30;;;4.78;;
26634;SDS011;14490;54.208;37.686;2023-12-07T13:03:42;9.38;;;5.05;;
26634;SDS011;14490;54.208;37.686;2023-12-07T13:06:23;6.28;;;3.03;;
26634;SDS011;14490;54.208;37.686;2023-12-07T13:09:04;9.10;;;4.20;;
26634;SDS011;14490;54.208;37.686;2023-12-07T13:11:46;10.45;;;4.53;;
26634;SDS011;14490;54.208;37.686;2023-12-07T13:14:28;8.07;;;4.07;;
26634;SDS011;14490;54.208;37.686;2023-12-07T13:17:12;7.70;;;2.88;;
26634;SDS011;14490;54.208;37.686;2023-12-07T13:23:24;7.22;;;4.20;;
26634;SDS011;14490;54.208;37.686;2023-12-07T13:25:51;7.00;;;3.17;;
26634;SDS011;14490;54.208;37.686;2023-12-07T13:28:19;9.63;;;4.05;;
26634;SDS011;14490;54.208;37.686;2023-12-07T13:30:47;8.13;;;4.32;;
26634;SDS011;14490;54.208;37.686;2023-12-07T13:33:14;10.45;;;4.60;;
26634;SDS011;14490;54.208;37.686;2023-12-07T13:35:44;6.80;;;4.53;;
26634;SDS011;14490;54.208;37.686;2023-12-07T14:18:53;7.22;;;3.90;;
26634;SDS011;14490;54.208;37.686;2023-12-07T14:21:34;5.90;;;3.78;;
26634;SDS011;14490;54.208;37.686;2023-12-07T14:26:43;5.45;;;3.35;;
26634;SDS011;14490;54.208;37.686;2023-12-07T14:29:10;9.82;;;4.63;;
26634;SDS011;14490;54.208;37.686;2023-12-07T14:31:40;7.97;;;3.25;;
26634;SDS011;14490;54.208;37.686;2023-12-07T14:34:09;6.57;;;3.33;;
26634;SDS011;14490;54.208;37.686;2023-12-07T14:36:38;11.23;;;3.35;;
26634;SDS011;14490;54.208;37.686;2023-12-07T14:39:06;6.57;;;3.53;;
26634;SDS011;14490;54.208;37.686;2023-12-07T14:41:34;6.65;;;4.00;;
26634;SDS011;14490;54.208;37.686;2023-12-07T14:46:47;5.88;;;3.90;;
26634;SDS011;14490;54.208;37.686;2023-12-07T14:56:21;9.52;;;4.10;;
26634;SDS011;14490;54.208;37.686;2023-12-07T14:58:49;7.75;;;4.72;;
26634;SDS011;14490;54.208;37.686;2023-12-07T15:01:39;7.77;;;3.17;;
26634;SDS011;14490;54.208;37.686;2023-12-07T15:04:06;5.70;;;3.47;;
26634;SDS011;14490;54.208;37.686;2023-12-07T15:06:35;8.57;;;4.68;;
26634;SDS011;14490;54.208;37.686;2023-12-07T15:09:02;7.03;;;4.20;;
26634;SDS011;14490;54.208;37.686;2023-12-07T15:11:34;5.13;;;3.60;;
26634;SDS011;14490;54.208;37.686;2023-12-07T15:14:02;6.57;;;4.10;;
26634;SDS011;14490;54.208;37.686;2023-12-07T15:16:29;10.70;;;4.90;;
26634;SDS011;14490;54.208;37.686;2023-12-07T15:18:57;12.18;;;4.78;;
26634;SDS011;14490;54.208;37.686;2023-12-07T15:21:25;6.82;;;3.80;;
26634;SDS011;14490;54.208;37.686;2023-12-07T15:23:52;6.43;;;3.17;;
26634;SDS011;14490;54.208;37.686;2023-12-07T15:26:35;7.32;;;4.35;;
26634;SDS011;14490;54.208;37.686;2023-12-07T15:29:16;5.93;;;3.13;;
26634;SDS011;14490;54.208;37.686;2023-12-07T15:31:56;6.72;;;4.10;;
26634;SDS011;14490;54.208;37.686;2023-12-07T15:34:24;9.48;;;4.50;;
26634;SDS011;14490;54.208;37.686;2023-12-07T15:37:05;9.13;;;5.63;;
26634;SDS011;14490;54.208;37.686;2023-12-07T15:39:32;21.98;;;4.75;;
26634;SDS011;14490;54.208;37.686;2023-12-07T15:42:10;7.28;;;4.88;;
26634;SDS011;14490;54.208;37.686;2023-12-07T15:44:51;8.85;;;4.28;;
26634;SDS011;14490;54.208;37.686;2023-12-07T15:47:19;11.88;;;5.07;;
26634;SDS011;14490;54.208;37.686;2023-12-07T15:52:27;7.78;;;4.28;;
26634;SDS011;14490;54.208;37.686;2023-12-07T15:54:54;15.18;;;5.75;;
26634;SDS011;14490;54.208;37.686;2023-12-07T15:57:28;7.80;;;5.15;;
26634;SDS011;14490;54.208;37.686;2023-12-07T15:59:56;10.20;;;4.68;;
26634;SDS011;14490;54.208;37.686;2023-12-07T16:02:37;23.85;;;5.95;;
26634;SDS011;14490;54.208;37.686;2023-12-07T16:05:04;8.73;;;4.93;;
26634;SDS011;14490;54.208;37.686;2023-12-07T16:07:46;9.55;;;5.07;;
26634;SDS011;14490;54.208;37.686;2023-12-07T16:10:27;10.20;;;5.03;;
26634;SDS011;14490;54.208;37.686;2023-12-07T16:20:02;6.68;;;4.07;;
26634;SDS011;14490;54.208;37.686;2023-12-07T16:22:35;12.65;;;4.30;;
26634;SDS011;14490;54.208;37.686;2023-12-07T16:25:17;10.00;;;5.40;;
26634;SDS011;14490;54.208;37.686;2023-12-07T16:27:45;10.23;;;5.10;;
26634;SDS011;14490;54.208;37.686;2023-12-07T16:30:38;9.65;;;4.95;;
26634;SDS011;14490;54.208;37.686;2023-12-07T16:33:21;7.22;;;4.32;;
26634;SDS011;14490;54.208;37.686;2023-12-07T16:35:50;9.68;;;4.47;;
26634;SDS011;14490;54.208;37.686;2023-12-07T16:38:33;14.00;;;5.05;;
26634;SDS011;14490;54.208;37.686;2023-12-07T16:41:20;5.88;;;3.65;;
26634;SDS011;14490;54.208;37.686;2023-12-07T16:44:02;9.50;;;4.93;;
26634;SDS011;14490;54.208;37.686;2023-12-07T16:46:44;9.15;;;5.05;;
26634;SDS011;14490;54.208;37.686;2023-12-07T16:49:26;12.60;;;5.85;;
26634;SDS011;14490;54.208;37.686;2023-12-07T16:59:02;6.03;;;4.35;;
26634;SDS011;14490;54.208;37.686;2023-12-07T17:01:29;11.75;;;3.13;;
26634;SDS011;14490;54.208;37.686;2023-12-07T17:06:33;15.00;;;5.40;;
26634;SDS011;14490;54.208;37.686;2023-12-07T17:11:36;9.35;;;5.22;;
26634;SDS011;14490;54.208;37.686;2023-12-07T17:14:05;8.73;;;4.65;;
26634;SDS011;14490;54.208;37.686;2023-12-07T17:16:46;8.80;;;5.00;;
26634;SDS011;14490;54.208;37.686;2023-12-07T17:19:14;10.23;;;4.82;;
26634;SDS011;14490;54.208;37.686;2023-12-07T17:21:55;13.30;;;4.80;;
26634;SDS011;14490;54.208;37.686;2023-12-07T17:27:18;6.50;;;4.50;;
26634;SDS011;14490;54.208;37.686;2023-12-07T17:33:41;16.70;;;5.32;;
26634;SDS011;14490;54.208;37.686;2023-12-07T17:36:11;7.47;;;4.03;;
26634;SDS011;14490;54.208;37.686;2023-12-07T17:38:41;11.13;;;4.70;;
26634;SDS011;14490;54.208;37.686;2023-12-07T17:41:10;11.85;;;4.45;;
26634;SDS011;14490;54.208;37.686;2023-12-07T17:43:37;11.32;;;4.97;;
26634;SDS011;14490;54.208;37.686;2023-12-07T17:46:05;14.38;;;5.85;;
26634;SDS011;14490;54.208;37.686;2023-12-07T17:48:34;8.95;;;5.93;;
26634;SDS011;14490;54.208;37.686;2023-12-07T17:51:18;11.80;;;5.82;;
26634;SDS011;14490;54.208;37.686;2023-12-07T17:53:59;7.47;;;4.22;;
26634;SDS011;14490;54.208;37.686;2023-12-07T17:56:26;12.88;;;4.93;;
26634;SDS011;14490;54.208;37.686;2023-12-07T17:59:11;9.40;;;4.68;;
26634;SDS011;14490;54.208;37.686;2023-12-07T18:01:39;13.75;;;5.18;;
26634;SDS011;14490;54.208;37.686;2023-12-07T18:04:07;9.30;;;4.28;;
26634;SDS011;14490;54.208;37.686;2023-12-07T18:06:37;9.35;;;4.00;;
26634;SDS011;14490;54.208;37.686;2023-12-07T18:09:13;12.15;;;5.88;;
26634;SDS011;14490;54.208;37.686;2023-12-07T18:11:45;9.20;;;4.80;;
26634;SDS011;14490;54.208;37.686;2023-12-07T18:14:28;7.15;;;4.68;;
26634;SDS011;14490;54.208;37.686;2023-12-07T18:16:57;13.40;;;4.95;;
26634;SDS011;14490;54.208;37.686;2023-12-07T18:19:27;14.93;;;5.50;;
26634;SDS011;14490;54.208;37.686;2023-12-07T18:21:56;8.35;;;5.22;;
26634;SDS011;14490;54.208;37.686;2023-12-07T18:24:26;13.23;;;6.72;;
26634;SDS011;14490;54.208;37.686;2023-12-07T18:26:58;12.23;;;5.25;;
26634;SDS011;14490;54.208;37.686;2023-12-07T18:32:03;12.88;;;4.82;;
26634;SDS011;14490;54.208;37.686;2023-12-07T18:34:45;11.40;;;5.20;;
26634;SDS011;14490;54.208;37.686;2023-12-07T18:37:30;22.83;;;7.55;;
26634;SDS011;14490;54.208;37.686;2023-12-07T18:40:01;12.45;;;5.20;;
26634;SDS011;14490;54.208;37.686;2023-12-07T18:42:31;14.23;;;5.65;;
26634;SDS011;14490;54.208;37.686;2023-12-07T18:45:12;11.63;;;5.55;;
26634;SDS011;14490;54.208;37.686;2023-12-07T18:48:26;22.83;;;6.85;;
26634;SDS011;14490;54.208;37.686;2023-12-07T18:51:12;12.82;;;6.18;;
26634;SDS011;14490;54.208;37.686;2023-12-07T18:59:45;21.13;;;7.10;;
26634;SDS011;14490;54.208;37.686;2023-12-07T19:02:29;18.77;;;6.82;;
26634;SDS011;14490;54.208;37.686;2023-12-07T19:05:12;18.95;;;6.07;;
26634;SDS011;14490;54.208;37.686;2023-12-07T19:07:55;12.60;;;5.78;;
26634;SDS011;14490;54.208;37.686;2023-12-07T19:10:57;10.15;;;4.50;;
26634;SDS011;14490;54.208;37.686;2023-12-07T19:24:17;12.23;;;5.68;;
26634;SDS011;14490;54.208;37.686;2023-12-07T19:32:06;14.35;;;5.85;;
26634;SDS011;14490;54.208;37.686;2023-12-07T19:34:47;11.38;;;5.88;;
26634;SDS011;14490;54.208;37.686;2023-12-07T19:37:28;9.82;;;5.00;;
26634;SDS011;14490;54.208;37.686;2023-12-07T19:39:57;16.08;;;6.40;;
26634;SDS011;14490;54.208;37.686;2023-12-07T19:42:39;16.13;;;6.75;;
26634;SDS011;14490;54.208;37.686;2023-12-07T19:48:04;13.02;;;5.75;;
26634;SDS011;14490;54.208;37.686;2023-12-07T19:50:45;17.38;;;8.35;;
26634;SDS011;14490;54.208;37.686;2023-12-07T19:53:33;13.68;;;5.28;;
26634;SDS011;14490;54.208;37.686;2023-12-07T19:56:27;19.20;;;6.30;;
26634;SDS011;14490;54.208;37.686;2023-12-07T19:59:23;20.10;;;5.70;;
26634;SDS011;14490;54.208;37.686;2023-12-07T20:02:06;15.98;;;6.65;;
26634;SDS011;14490;54.208;37.686;2023-12-07T20:04:34;22.08;;;7.47;;
26634;SDS011;14490;54.208;37.686;2023-12-07T20:07:16;17.83;;;6.32;;
26634;SDS011;14490;54.208;37.686;2023-12-07T20:12:29;17.35;;;6.18;;
26634;SDS011;14490;54.208;37.686;2023-12-07T20:15:01;16.17;;;7.43;;
26634;SDS011;14490;54.208;37.686;2023-12-07T20:17:29;23.70;;;7.00;;
26634;SDS011;14490;54.208;37.686;2023-12-07T20:20:12;13.65;;;5.65;;
26634;SDS011;14490;54.208;37.686;2023-12-07T20:22:54;17.65;;;7.25;;
26634;SDS011;14490;54.208;37.686;2023-12-07T20:25:35;18.33;;;6.70;;
26634;SDS011;14490;54.208;37.686;2023-12-07T20:35:13;19.13;;;6.50;;
26634;SDS011;14490;54.208;37.686;2023-12-07T20:37:54;18.27;;;6.22;;
26634;SDS011;14490;54.208;37.686;2023-12-07T20:48:02;16.17;;;6.65;;
26634;SDS011;14490;54.208;37.686;2023-12-07T20:53:32;16.98;;;6.40;;
26634;SDS011;14490;54.208;37.686;2023-12-07T20:58:41;19.98;;;7.70;;
26634;SDS011;14490;54.208;37.686;2023-12-07T21:01:08;19.10;;;7.80;;
26634;SDS011;14490;54.208;37.686;2023-12-07T21:03:36;15.43;;;7.28;;